Terminal Aerodrome Forecast
Issued by NWS Amarillo, TX

Home | Current Version | Previous Version | Text Only | Print | Product List | Glossary On
Versions: 1 2 3 4 5 6 7 8 9 10 11 12 13 14 15 16 17
000
FTUS44 KAMA 292320
TAFGUY
TAF
KGUY 292320Z 3000/3024 16011KT P6SM VCTS SCT040CB BKN200
      TEMPO 3000/3004 4SM TSRA BKN035CB
     FM300400 16011KT P6SM BKN200
     FM301400 19012KT P6SM SCT060 BKN200=

USA.gov is the U.S. government's official web portal to all federal, state and local government web resources and services.